Time,TemperatureF,DewpointF,PressureIn,WindDirection,WindDirectionDegrees,WindSpeedMPH,WindSpeedGustMPH,Humidity,HourlyPrecipIn,Conditions,Clouds,dailyrainin,SoftwareType,DateUTC
2013-04-24 00:01:00,69.6,40.8,30.21,NE,49,0.0,0.0,35,0.00,,---,0.00,VWS V14.01,2013-04-24 04:01:00,
2013-04-24 00:02:00,69.6,40.8,30.21,NE,49,0.0,0.0,35,0.00,,---,0.00,VWS V14.01,2013-04-24 04:02:00,
2013-04-24 00:03:00,69.6,40.8,30.21,NE,49,0.0,0.0,35,0.00,,---,0.00,VWS V14.01,2013-04-24 04:03:00,
2013-04-24 00:08:00,69.4,40.6,30.21,NE,49,0.0,0.0,35,0.00,,---,0.00,VWS V14.01,2013-04-24 04:08:00,
2013-04-24 00:13:00,69.3,41.2,30.21,NE,49,0.0,0.0,36,0.00,,---,0.00,VWS V14.01,2013-04-24 04:13:00,
2013-04-24 00:18:00,69.3,41.2,30.21,NE,49,0.0,0.0,36,0.00,,---,0.00,VWS V14.01,2013-04-24 04:18:00,
2013-04-24 00:23:00,69.1,41.0,30.21,NE,49,0.0,0.0,36,0.00,,---,0.00,VWS V14.01,2013-04-24 04:23:00,
2013-04-24 00:28:00,69.1,41.0,30.21,NE,49,0.0,0.0,36,0.00,,---,0.00,VWS V14.01,2013-04-24 04:28:00,
2013-04-24 00:33:00,69.3,41.9,30.21,NE,49,0.0,0.0,37,0.00,,---,0.00,VWS V14.01,2013-04-24 04:33:00,
2013-04-24 00:38:00,69.3,41.9,30.21,NE,49,0.0,0.0,37,0.00,,---,0.00,VWS V14.01,2013-04-24 04:38:00,
2013-04-24 00:43:00,69.3,41.9,30.21,NE,49,0.0,0.0,37,0.00,,---,0.00,VWS V14.01,2013-04-24 04:43:00,
2013-04-24 00:48:00,69.3,41.9,30.21,NE,49,0.0,0.0,37,0.00,,---,0.00,VWS V14.01,2013-04-24 04:48:00,
2013-04-24 00:54:00,69.4,42.1,30.21,NE,49,0.0,0.0,37,0.00,,---,0.00,VWS V14.01,2013-04-24 04:54:00,
2013-04-24 00:59:00,69.3,41.2,30.21,NNE,14,0.0,0.0,36,0.00,,---,0.00,VWS V14.01,2013-04-24 04:59:00,
2013-04-24 01:04:00,69.6,41.5,30.21,ENE,58,0.0,0.0,36,0.00,,---,0.00,VWS V14.01,2013-04-24 05:04:00,
2013-04-24 01:09:00,69.8,40.9,30.21,ENE,65,2.7,2.7,35,0.00,,---,0.00,VWS V14.01,2013-04-24 05:09:00,
2013-04-24 01:14:00,70.2,39.7,30.21,NE,43,3.1,4.0,33,0.00,,---,0.00,VWS V14.01,2013-04-24 05:14:00,
2013-04-24 01:19:00,70.5,40.1,30.21,NE,55,0.0,3.6,33,0.00,,---,0.00,VWS V14.01,2013-04-24 05:19:00,
2013-04-24 01:24:00,70.5,40.1,30.21,ENE,57,3.1,4.0,33,0.00,,---,0.00,VWS V14.01,2013-04-24 05:24:00,
2013-04-24 01:29:00,70.7,39.4,30.21,ENE,59,2.7,2.7,32,0.00,,---,0.00,VWS V14.01,2013-04-24 05:29:00,
2013-04-24 01:34:00,70.7,39.4,30.21,ENE,58,0.0,3.1,32,0.00,,---,0.00,VWS V14.01,2013-04-24 05:34:00,
2013-04-24 01:39:00,70.5,39.3,30.18,East,81,2.2,2.2,32,0.00,,---,0.00,VWS V14.01,2013-04-24 05:39:00,
2013-04-24 01:44:00,70.5,39.3,30.18,ENE,65,0.0,0.0,32,0.00,,---,0.00,VWS V14.01,2013-04-24 05:44:00,
2013-04-24 01:49:00,70.3,39.9,30.18,ENE,65,0.0,2.2,33,0.00,,---,0.00,VWS V14.01,2013-04-24 05:49:00,
2013-04-24 01:54:00,70.2,39.7,30.18,ENE,59,0.0,0.0,33,0.00,,---,0.00,VWS V14.01,2013-04-24 05:54:00,
2013-04-24 01:59:00,70.2,39.7,30.18,ENE,66,2.2,2.2,33,0.00,,---,0.00,VWS V14.01,2013-04-24 05:59:00,
2013-04-24 02:04:00,70.0,39.6,30.18,ENE,59,0.0,0.0,33,0.00,,---,0.00,VWS V14.01,2013-04-24 06:04:00,
2013-04-24 02:09:00,69.6,39.3,30.18,ENE,61,0.0,0.0,33,0.00,,---,0.00,VWS V14.01,2013-04-24 06:09:00,
2013-04-24 02:14:00,69.4,39.9,30.18,ENE,65,0.0,0.0,34,0.00,,---,0.00,VWS V14.01,2013-04-24 06:14:00,
2013-04-24 02:19:00,68.9,39.4,30.18,ENE,65,0.0,0.0,34,0.00,,---,0.00,VWS V14.01,2013-04-24 06:19:00,
2013-04-24 02:24:00,68.5,39.1,30.18,ENE,65,0.0,0.0,34,0.00,,---,0.00,VWS V14.01,2013-04-24 06:24:00,
2013-04-24 02:29:00,68.2,39.5,30.18,ENE,65,0.0,0.0,35,0.00,,---,0.00,VWS V14.01,2013-04-24 06:29:00,
2013-04-24 02:35:00,67.8,39.9,30.18,ENE,64,0.0,0.0,36,0.00,,---,0.00,VWS V14.01,2013-04-24 06:35:00,
2013-04-24 02:40:00,67.6,39.8,30.18,ENE,65,0.0,0.0,36,0.00,,---,0.00,VWS V14.01,2013-04-24 06:40:00,
2013-04-24 02:45:00,67.5,40.3,30.18,ENE,64,0.0,0.0,37,0.00,,---,0.00,VWS V14.01,2013-04-24 06:45:00,
2013-04-24 02:50:00,67.6,41.8,30.18,NE,52,0.0,0.0,39,0.00,,---,0.00,VWS V14.01,2013-04-24 06:50:00,
2013-04-24 02:55:00,68.0,40.8,30.15,East,89,2.7,2.7,37,0.00,,---,0.00,VWS V14.01,2013-04-24 06:55:00,
2013-04-24 03:00:00,68.5,40.5,30.15,ENE,68,2.2,2.7,36,0.00,,---,0.00,VWS V14.01,2013-04-24 07:00:00,
2013-04-24 03:05:00,68.7,40.7,30.15,ENE,59,0.0,0.0,36,0.00,,---,0.00,VWS V14.01,2013-04-24 07:05:00,
2013-04-24 03:10:00,68.9,40.9,30.15,ENE,68,0.0,0.0,36,0.00,,---,0.00,VWS V14.01,2013-04-24 07:10:00,
2013-04-24 03:15:00,68.9,40.9,30.15,ENE,61,0.0,0.0,36,0.00,,---,0.00,VWS V14.01,2013-04-24 07:15:00,
2013-04-24 03:20:00,68.7,40.0,30.15,ENE,78,0.0,0.0,35,0.00,,---,0.00,VWS V14.01,2013-04-24 07:20:00,
2013-04-24 03:25:00,68.7,40.0,30.15,ENE,68,0.0,0.0,35,0.00,,---,0.00,VWS V14.01,2013-04-24 07:25:00,
2013-04-24 03:30:00,68.7,40.0,30.15,ENE,77,0.0,0.0,35,0.00,,---,0.00,VWS V14.01,2013-04-24 07:30:00,
2013-04-24 03:35:00,68.5,39.8,30.15,ENE,77,0.0,0.0,35,0.00,,---,0.00,VWS V14.01,2013-04-24 07:35:00,
2013-04-24 03:40:00,68.4,40.4,30.15,ENE,57,0.0,0.0,36,0.00,,---,0.00,VWS V14.01,2013-04-24 07:40:00,
2013-04-24 03:45:00,68.2,40.2,30.15,ENE,57,0.0,0.0,36,0.00,,---,0.00,VWS V14.01,2013-04-24 07:45:00,
2013-04-24 03:50:00,67.8,40.6,30.15,ENE,57,0.0,0.0,37,0.00,,---,0.00,VWS V14.01,2013-04-24 07:50:00,
2013-04-24 03:55:00,67.5,41.0,30.15,ENE,57,0.0,0.0,38,0.00,,---,0.00,VWS V14.01,2013-04-24 07:55:00,
2013-04-24 04:00:00,67.1,41.3,30.15,ENE,57,0.0,0.0,39,0.00,,---,0.00,VWS V14.01,2013-04-24 08:00:00,
2013-04-24 04:05:00,66.7,41.0,30.15,ENE,57,0.0,0.0,39,0.00,,---,0.00,VWS V14.01,2013-04-24 08:05:00,
2013-04-24 04:10:00,66.4,42.0,30.15,ENE,57,0.0,0.0,41,0.00,,---,0.00,VWS V14.01,2013-04-24 08:10:00,
2013-04-24 04:15:00,66.2,43.1,30.15,ENE,58,0.0,0.0,43,0.00,,---,0.00,VWS V14.01,2013-04-24 08:15:00,
2013-04-24 04:20:00,65.8,43.3,30.15,ENE,57,0.0,0.0,44,0.00,,---,0.00,VWS V14.01,2013-04-24 08:20:00,
2013-04-24 04:26:00,65.8,43.9,30.15,ENE,58,0.0,0.0,45,0.00,,---,0.00,VWS V14.01,2013-04-24 08:26:00,
2013-04-24 04:31:00,65.7,43.8,30.18,ENE,57,0.0,0.0,45,0.00,,---,0.00,VWS V14.01,2013-04-24 08:31:00,
2013-04-24 04:36:00,65.7,43.8,30.18,ENE,58,0.0,0.0,45,0.00,,---,0.00,VWS V14.01,2013-04-24 08:36:00,
2013-04-24 04:41:00,64.9,44.8,30.18,ENE,57,0.0,0.0,48,0.00,,---,0.00,VWS V14.01,2013-04-24 08:41:00,
2013-04-24 04:46:00,64.9,44.8,30.18,ENE,57,0.0,0.0,48,0.00,,---,0.00,VWS V14.01,2013-04-24 08:46:00,
2013-04-24 04:51:00,64.9,44.8,30.18,ENE,57,0.0,0.0,48,0.00,,---,0.00,VWS V14.01,2013-04-24 08:51:00,
2013-04-24 04:56:00,64.8,45.2,30.18,ENE,57,0.0,0.0,49,0.00,,---,0.00,VWS V14.01,2013-04-24 08:56:00,
2013-04-24 05:01:00,64.8,45.7,30.18,ENE,57,0.0,0.0,50,0.00,,---,0.00,VWS V14.01,2013-04-24 09:01:00,
2013-04-24 05:06:00,64.8,45.7,30.18,ENE,57,0.0,0.0,50,0.00,,---,0.00,VWS V14.01,2013-04-24 09:06:00,
2013-04-24 05:11:00,64.6,46.1,30.18,ENE,57,0.0,0.0,51,0.00,,---,0.00,VWS V14.01,2013-04-24 09:11:00,
2013-04-24 05:16:00,64.8,46.7,30.18,ENE,58,0.0,0.0,52,0.00,,---,0.00,VWS V14.01,2013-04-24 09:16:00,
2013-04-24 05:21:00,64.8,47.2,30.18,ENE,57,0.0,0.0,53,0.00,,---,0.00,VWS V14.01,2013-04-24 09:21:00,
2013-04-24 05:26:00,64.8,47.8,30.18,ENE,57,0.0,0.0,54,0.00,,---,0.00,VWS V14.01,2013-04-24 09:26:00,
2013-04-24 05:31:00,64.8,47.8,30.18,ENE,57,0.0,0.0,54,0.00,,---,0.00,VWS V14.01,2013-04-24 09:31:00,
2013-04-24 05:36:00,64.8,48.2,30.18,ENE,57,0.0,0.0,55,0.00,,---,0.00,VWS V14.01,2013-04-24 09:36:00,
2013-04-24 05:41:00,64.8,48.2,30.18,ENE,57,0.0,0.0,55,0.00,,---,0.00,VWS V14.01,2013-04-24 09:41:00,
2013-04-24 05:46:00,64.8,49.2,30.18,ENE,57,0.0,0.0,57,0.00,,---,0.00,VWS V14.01,2013-04-24 09:46:00,
2013-04-24 05:51:00,64.8,49.2,30.18,ENE,58,0.0,0.0,57,0.00,,---,0.00,VWS V14.01,2013-04-24 09:51:00,
2013-04-24 05:56:00,64.8,49.7,30.18,ENE,57,0.0,0.0,58,0.00,,---,0.00,VWS V14.01,2013-04-24 09:56:00,
2013-04-24 06:01:00,64.6,50.0,30.18,ENE,57,0.0,0.0,59,0.00,,---,0.00,VWS V14.01,2013-04-24 10:01:00,
2013-04-24 06:06:00,64.6,50.4,30.18,ENE,58,0.0,0.0,60,0.00,,---,0.00,VWS V14.01,2013-04-24 10:06:00,
2013-04-24 06:11:00,64.4,50.2,30.18,ENE,57,0.0,0.0,60,0.00,,---,0.00,VWS V14.01,2013-04-24 10:11:00,
2013-04-24 06:17:00,64.4,50.7,30.18,ENE,58,0.0,0.0,61,0.00,,---,0.00,VWS V14.01,2013-04-24 10:17:00,
2013-04-24 06:22:00,64.4,51.1,30.18,ENE,57,0.0,0.0,62,0.00,,---,0.00,VWS V14.01,2013-04-24 10:22:00,
2013-04-24 06:27:00,64.4,51.1,30.18,ENE,57,0.0,0.0,62,0.00,,---,0.00,VWS V14.01,2013-04-24 10:27:00,
2013-04-24 06:32:00,64.2,51.8,30.18,ENE,58,0.0,0.0,64,0.00,,---,0.00,VWS V14.01,2013-04-24 10:32:00,
2013-04-24 06:37:00,64.2,51.8,30.18,ENE,57,0.0,0.0,64,0.00,,---,0.00,VWS V14.01,2013-04-24 10:37:00,
2013-04-24 06:42:00,64.4,52.4,30.18,ENE,58,0.0,0.0,65,0.00,,---,0.00,VWS V14.01,2013-04-24 10:42:00,
2013-04-24 06:47:00,64.4,52.8,30.18,ENE,57,0.0,0.0,66,0.00,,---,0.00,VWS V14.01,2013-04-24 10:47:00,
2013-04-24 06:52:00,64.4,53.2,30.18,ENE,57,0.0,0.0,67,0.00,,---,0.00,VWS V14.01,2013-04-24 10:52:00,
2013-04-24 06:57:00,64.4,53.2,30.18,ENE,64,0.0,0.0,67,0.00,,---,0.00,VWS V14.01,2013-04-24 10:57:00,
2013-04-24 07:02:00,64.4,53.6,30.18,ENE,64,0.0,0.0,68,0.00,,---,0.00,VWS V14.01,2013-04-24 11:02:00,
2013-04-24 07:07:00,64.6,54.2,30.18,ENE,64,0.0,0.0,69,0.00,,---,0.00,VWS V14.01,2013-04-24 11:07:00,
2013-04-24 07:12:00,64.8,54.8,30.21,ENE,64,0.0,0.0,70,0.00,,---,0.00,VWS V14.01,2013-04-24 11:12:00,
2013-04-24 07:17:00,65.1,55.1,30.21,ENE,64,0.0,0.0,70,0.00,,---,0.00,VWS V14.01,2013-04-24 11:17:00,
2013-04-24 07:22:00,65.5,55.8,30.21,ENE,64,0.0,0.0,71,0.00,,---,0.00,VWS V14.01,2013-04-24 11:22:00,
2013-04-24 07:27:00,65.7,56.4,30.21,ENE,63,0.0,0.0,72,0.00,,---,0.00,VWS V14.01,2013-04-24 11:27:00,
2013-04-24 07:32:00,66.0,56.7,30.21,ENE,60,0.0,0.0,72,0.00,,---,0.00,VWS V14.01,2013-04-24 11:32:00,
2013-04-24 07:37:00,66.4,57.1,30.21,NE,35,0.0,0.0,72,0.00,,---,0.00,VWS V14.01,2013-04-24 11:37:00,
2013-04-24 07:42:00,67.1,57.4,30.21,NNW,340,0.0,0.0,71,0.00,,---,0.00,VWS V14.01,2013-04-24 11:42:00,
2013-04-24 07:47:00,68.4,56.6,30.21,NNW,341,0.0,0.0,66,0.00,,---,0.00,VWS V14.01,2013-04-24 11:47:00,
2013-04-24 07:52:00,69.8,55.3,30.21,NNW,341,0.0,0.0,60,0.00,,---,0.00,VWS V14.01,2013-04-24 11:52:00,
2013-04-24 07:58:00,70.2,51.2,30.21,NNW,334,0.0,0.0,51,0.00,,---,0.00,VWS V14.01,2013-04-24 11:58:00,
2013-04-24 08:03:00,71.4,50.2,30.21,NNW,335,0.0,0.0,47,0.00,,---,0.00,VWS V14.01,2013-04-24 12:03:00,
2013-04-24 08:08:00,72.7,48.3,30.21,NNW,335,0.0,0.0,42,0.00,,---,0.00,VWS V14.01,2013-04-24 12:08:00,
2013-04-24 08:13:00,72.7,48.3,30.21,NNW,335,0.0,0.0,42,0.00,,---,0.00,VWS V14.01,2013-04-24 12:13:00,
2013-04-24 08:18:00,73.0,48.0,30.21,NNW,335,0.0,0.0,41,0.00,,---,0.00,VWS V14.01,2013-04-24 12:18:00,
2013-04-24 08:23:00,74.3,47.1,30.21,NNW,335,0.0,0.0,38,0.00,,---,0.00,VWS V14.01,2013-04-24 12:23:00,
2013-04-24 08:28:00,75.6,46.0,30.21,NE,38,0.0,0.0,35,0.00,,---,0.00,VWS V14.01,2013-04-24 12:28:00,
2013-04-24 08:33:00,76.6,45.4,30.21,East,83,0.0,2.2,33,0.00,,---,0.00,VWS V14.01,2013-04-24 12:33:00,
2013-04-24 08:38:00,77.0,44.9,30.21,East,83,0.0,0.0,32,0.00,,---,0.00,VWS V14.01,2013-04-24 12:38:00,
2013-04-24 08:43:00,77.4,44.4,30.24,East,83,0.0,0.0,31,0.00,,---,0.00,VWS V14.01,2013-04-24 12:43:00,
2013-04-24 08:48:00,77.2,43.4,30.24,NE,46,3.1,3.1,30,0.00,,---,0.00,VWS V14.01,2013-04-24 12:48:00,
2013-04-24 08:53:00,77.2,43.4,30.24,East,101,0.0,0.0,30,0.00,,---,0.00,VWS V14.01,2013-04-24 12:53:00,
2013-04-24 08:58:00,81.0,39.7,30.24,East,89,4.0,4.0,23,0.00,,---,0.00,VWS V14.01,2013-04-24 12:58:00,
2013-04-24 09:03:00,81.5,39.0,30.24,ESE,106,3.1,3.1,22,0.00,,---,0.00,VWS V14.01,2013-04-24 13:03:00,
2013-04-24 09:08:00,81.1,38.7,30.24,East,83,3.1,5.4,22,0.00,,---,0.00,VWS V14.01,2013-04-24 13:08:00,
2013-04-24 09:13:00,80.6,39.4,30.24,ESE,116,5.4,5.4,23,0.00,,---,0.00,VWS V14.01,2013-04-24 13:13:00,
2013-04-24 09:18:00,80.4,38.1,30.24,ESE,122,6.3,6.3,22,0.00,,---,0.00,VWS V14.01,2013-04-24 13:18:00,
2013-04-24 09:23:00,81.5,37.8,30.24,ESE,106,5.4,5.4,21,0.00,,---,0.00,VWS V14.01,2013-04-24 13:23:00,
2013-04-24 09:28:00,81.5,36.6,30.24,East,82,2.7,5.8,20,0.00,,---,0.00,VWS V14.01,2013-04-24 13:28:00,
2013-04-24 09:33:00,82.0,37.0,30.24,NE,44,8.7,8.7,20,0.00,,---,0.00,VWS V14.01,2013-04-24 13:33:00,
2013-04-24 09:38:00,81.5,36.6,30.24,SE,141,4.0,4.0,20,0.00,,---,0.00,VWS V14.01,2013-04-24 13:38:00,
2013-04-24 09:44:00,81.5,36.6,30.24,ESE,120,4.0,4.9,20,0.00,,---,0.00,VWS V14.01,2013-04-24 13:44:00,
2013-04-24 09:49:00,82.0,38.3,30.24,East,86,4.0,4.0,21,0.00,,---,0.00,VWS V14.01,2013-04-24 13:49:00,
2013-04-24 09:54:00,82.2,37.2,30.24,ENE,76,8.1,8.1,20,0.00,,---,0.00,VWS V14.01,2013-04-24 13:54:00,
2013-04-24 09:59:00,82.6,37.5,30.24,ESE,117,5.4,5.4,20,0.00,,---,0.00,VWS V14.01,2013-04-24 13:59:00,
2013-04-24 10:04:00,82.4,37.3,30.24,ENE,76,7.2,7.2,20,0.00,,---,0.00,VWS V14.01,2013-04-24 14:04:00,
2013-04-24 10:09:00,82.2,38.4,30.24,East,97,4.0,4.0,21,0.00,,---,0.00,VWS V14.01,2013-04-24 14:09:00,
2013-04-24 10:14:00,82.4,37.3,30.24,ENE,65,3.1,4.0,20,0.00,,---,0.00,VWS V14.01,2013-04-24 14:14:00,
2013-04-24 10:19:00,82.2,38.4,30.24,East,84,4.0,5.8,21,0.00,,---,0.00,VWS V14.01,2013-04-24 14:19:00,
2013-04-24 10:24:00,82.0,37.0,30.24,ENE,68,4.0,5.4,20,0.00,,---,0.00,VWS V14.01,2013-04-24 14:24:00,
2013-04-24 10:29:00,81.9,38.1,30.24,East,84,5.4,5.4,21,0.00,,---,0.00,VWS V14.01,2013-04-24 14:29:00,
2013-04-24 10:34:00,81.0,37.4,30.24,ENE,74,5.4,5.4,21,0.00,,---,0.00,VWS V14.01,2013-04-24 14:34:00,
2013-04-24 10:39:00,81.5,39.0,30.24,East,88,5.8,5.8,22,0.00,,---,0.00,VWS V14.01,2013-04-24 14:39:00,
2013-04-24 10:44:00,81.1,37.5,30.24,ENE,71,8.1,8.1,21,0.00,,---,0.00,VWS V14.01,2013-04-24 14:44:00,
2013-04-24 10:49:00,80.6,37.1,30.24,ESE,110,5.4,5.4,21,0.00,,---,0.00,VWS V14.01,2013-04-24 14:49:00,
2013-04-24 10:54:00,80.6,38.3,30.24,East,96,5.8,5.8,22,0.00,,---,0.00,VWS V14.01,2013-04-24 14:54:00,
2013-04-24 10:59:00,81.9,38.1,30.24,SE,130,3.6,3.6,21,0.00,,---,0.00,VWS V14.01,2013-04-24 14:59:00,
2013-04-24 11:04:00,82.0,38.3,30.24,ENE,62,3.6,5.4,21,0.00,,---,0.00,VWS V14.01,2013-04-24 15:04:00,
2013-04-24 11:10:00,81.9,38.1,30.24,ENE,68,8.1,8.1,21,0.00,,---,0.00,VWS V14.01,2013-04-24 15:10:00,
2013-04-24 11:15:00,81.9,36.9,30.24,South,169,7.6,7.6,20,0.00,,---,0.00,VWS V14.01,2013-04-24 15:15:00,
2013-04-24 11:20:00,82.0,38.3,30.24,East,95,5.4,5.4,21,0.00,,---,0.00,VWS V14.01,2013-04-24 15:20:00,
2013-04-24 11:25:00,81.7,36.8,30.24,ESE,119,4.0,8.1,20,0.00,,---,0.00,VWS V14.01,2013-04-24 15:25:00,
2013-04-24 11:30:00,81.5,37.8,30.24,ENE,73,5.4,6.3,21,0.00,,---,0.00,VWS V14.01,2013-04-24 15:30:00,
2013-04-24 11:35:00,81.7,39.2,30.24,ESE,104,4.0,6.3,22,0.00,,---,0.00,VWS V14.01,2013-04-24 15:35:00,
2013-04-24 11:40:00,81.5,39.0,30.24,SE,138,5.4,10.1,22,0.00,,---,0.00,VWS V14.01,2013-04-24 15:40:00,
2013-04-24 11:45:00,82.0,38.3,30.24,ENE,62,9.2,9.6,21,0.00,,---,0.00,VWS V14.01,2013-04-24 15:45:00,
2013-04-24 11:50:00,81.7,39.2,30.24,ENE,62,3.6,3.6,22,0.00,,---,0.00,VWS V14.01,2013-04-24 15:50:00,
2013-04-24 11:55:00,82.4,38.6,30.24,SE,134,8.1,8.1,21,0.00,,---,0.00,VWS V14.01,2013-04-24 15:55:00,
2013-04-24 12:00:00,82.2,38.4,30.24,East,84,5.8,5.8,21,0.00,,---,0.00,VWS V14.01,2013-04-24 16:00:00,
2013-04-24 12:05:00,81.7,39.2,30.24,SE,127,3.1,3.1,22,0.00,,---,0.00,VWS V14.01,2013-04-24 16:05:00,
2013-04-24 12:10:00,81.3,37.7,30.24,ENE,77,8.1,8.1,21,0.00,,---,0.00,VWS V14.01,2013-04-24 16:10:00,
2013-04-24 12:15:00,81.7,38.0,30.24,NE,54,3.6,3.6,21,0.00,,---,0.00,VWS V14.01,2013-04-24 16:15:00,
2013-04-24 12:20:00,81.9,38.1,30.24,ENE,70,4.9,4.9,21,0.00,,---,0.00,VWS V14.01,2013-04-24 16:20:00,
2013-04-24 12:25:00,82.0,38.3,30.24,ENE,74,5.4,5.4,21,0.00,,---,0.00,VWS V14.01,2013-04-24 16:25:00,
2013-04-24 12:30:00,82.0,38.3,30.24,ESE,112,4.9,8.1,21,0.00,,---,0.00,VWS V14.01,2013-04-24 16:30:00,
2013-04-24 12:35:00,82.0,38.3,30.24,East,83,5.8,6.3,21,0.00,,---,0.00,VWS V14.01,2013-04-24 16:35:00,
2013-04-24 12:40:00,82.2,39.6,30.24,ESE,122,4.5,4.5,22,0.00,,---,0.00,VWS V14.01,2013-04-24 16:40:00,
2013-04-24 12:45:00,82.2,39.6,30.24,SE,141,7.6,7.6,22,0.00,,---,0.00,VWS V14.01,2013-04-24 16:45:00,
2013-04-24 12:51:00,82.0,38.3,30.24,ENE,63,4.9,5.4,21,0.00,,---,0.00,VWS V14.01,2013-04-24 16:51:00,
2013-04-24 12:56:00,82.0,38.3,30.24,SSE,159,4.9,4.9,21,0.00,,---,0.00,VWS V14.01,2013-04-24 16:56:00,
2013-04-24 13:01:00,82.2,39.6,30.24,East,99,4.9,4.9,22,0.00,,---,0.00,VWS V14.01,2013-04-24 17:01:00,
2013-04-24 13:06:00,82.4,38.6,30.24,ESE,120,5.8,5.8,21,0.00,,---,0.00,VWS V14.01,2013-04-24 17:06:00,
2013-04-24 13:11:00,82.4,38.6,30.24,ESE,103,6.7,6.7,21,0.00,,---,0.00,VWS V14.01,2013-04-24 17:11:00,
2013-04-24 13:16:00,82.4,38.6,30.24,ENE,67,4.9,4.9,21,0.00,,---,0.00,VWS V14.01,2013-04-24 17:16:00,
2013-04-24 13:21:00,82.0,39.5,30.24,East,92,8.3,8.3,22,0.00,,---,0.00,VWS V14.01,2013-04-24 17:21:00,
2013-04-24 13:26:00,82.0,39.5,30.21,ENE,77,6.3,6.3,22,0.00,,---,0.00,VWS V14.01,2013-04-24 17:26:00,
2013-04-24 13:31:00,82.0,39.5,30.21,SE,131,6.7,6.7,22,0.00,,---,0.00,VWS V14.01,2013-04-24 17:31:00,
2013-04-24 13:36:00,82.6,38.7,30.21,ENE,70,8.1,8.1,21,0.00,,---,0.00,VWS V14.01,2013-04-24 17:36:00,
2013-04-24 13:41:00,82.4,38.6,30.24,ENE,73,6.3,6.3,21,0.00,,---,0.00,VWS V14.01,2013-04-24 17:41:00,
2013-04-24 13:46:00,82.4,38.6,30.24,SE,138,5.8,6.3,21,0.00,,---,0.00,VWS V14.01,2013-04-24 17:46:00,
2013-04-24 13:51:00,82.4,38.6,30.24,East,85,4.9,4.9,21,0.00,,---,0.00,VWS V14.01,2013-04-24 17:51:00,
2013-04-24 13:56:00,82.2,38.4,30.24,ESE,102,6.3,6.3,21,0.00,,---,0.00,VWS V14.01,2013-04-24 17:56:00,
2013-04-24 14:01:00,81.7,38.0,30.24,NE,38,3.6,3.6,21,0.00,,---,0.00,VWS V14.01,2013-04-24 18:01:00,
2013-04-24 14:06:00,80.8,37.2,30.24,ESE,118,6.3,6.3,21,0.00,,---,0.00,VWS V14.01,2013-04-24 18:06:00,
2013-04-24 14:11:00,81.1,38.7,30.21,ESE,117,5.8,5.8,22,0.00,,---,0.00,VWS V14.01,2013-04-24 18:11:00,
2013-04-24 14:16:00,81.1,37.5,30.21,NE,40,5.8,5.8,21,0.00,,---,0.00,VWS V14.01,2013-04-24 18:16:00,
2013-04-24 14:21:00,81.3,37.7,30.21,East,83,8.7,8.7,21,0.00,,---,0.00,VWS V14.01,2013-04-24 18:21:00,
2013-04-24 14:26:00,81.5,39.0,30.21,NE,35,5.8,5.8,22,0.00,,---,0.00,VWS V14.01,2013-04-24 18:26:00,
2013-04-24 14:32:00,81.7,38.0,30.21,ESE,112,3.6,3.6,21,0.00,,---,0.00,VWS V14.01,2013-04-24 18:32:00,
2013-04-24 14:37:00,82.0,39.5,30.21,SE,124,6.7,6.7,22,0.00,,---,0.00,VWS V14.01,2013-04-24 18:37:00,
2013-04-24 14:42:00,82.2,39.6,30.21,ENE,66,9.2,9.2,22,0.00,,---,0.00,VWS V14.01,2013-04-24 18:42:00,
2013-04-24 14:47:00,82.2,38.4,30.21,SE,135,2.7,2.7,21,0.00,,---,0.00,VWS V14.01,2013-04-24 18:47:00,
2013-04-24 14:52:00,82.2,38.4,30.21,East,84,3.1,6.3,21,0.00,,---,0.00,VWS V14.01,2013-04-24 18:52:00,
2013-04-24 14:57:00,81.7,39.2,30.21,ENE,61,3.1,3.6,22,0.00,,---,0.00,VWS V14.01,2013-04-24 18:57:00,
2013-04-24 15:02:00,82.4,38.6,30.21,ENE,70,2.7,2.7,21,0.00,,---,0.00,VWS V14.01,2013-04-24 19:02:00,
2013-04-24 15:07:00,82.8,37.6,30.21,NE,54,5.8,5.8,20,0.00,,---,0.00,VWS V14.01,2013-04-24 19:07:00,
2013-04-24 15:12:00,81.9,38.1,30.21,East,101,3.6,3.6,21,0.00,,---,0.00,VWS V14.01,2013-04-24 19:12:00,
2013-04-24 15:17:00,81.9,39.3,30.21,SSE,157,3.1,3.1,22,0.00,,---,0.00,VWS V14.01,2013-04-24 19:17:00,
2013-04-24 15:22:00,82.0,38.3,30.21,ENE,67,6.3,6.3,21,0.00,,---,0.00,VWS V14.01,2013-04-24 19:22:00,
2013-04-24 15:27:00,82.4,38.6,30.21,ENE,65,0.0,0.0,21,0.00,,---,0.00,VWS V14.01,2013-04-24 19:27:00,
2013-04-24 15:32:00,81.9,38.1,30.21,SE,137,3.1,3.1,21,0.00,,---,0.00,VWS V14.01,2013-04-24 19:32:00,
2013-04-24 15:37:00,81.5,37.8,30.21,East,83,4.0,4.0,21,0.00,,---,0.00,VWS V14.01,2013-04-24 19:37:00,
2013-04-24 15:42:00,81.0,37.4,30.21,ESE,105,0.0,3.6,21,0.00,,---,0.00,VWS V14.01,2013-04-24 19:42:00,
2013-04-24 15:47:00,82.0,39.5,30.21,South,187,3.6,3.6,22,0.00,,---,0.00,VWS V14.01,2013-04-24 19:47:00,
2013-04-24 15:52:00,82.2,38.4,30.21,East,98,4.0,5.8,21,0.00,,---,0.00,VWS V14.01,2013-04-24 19:52:00,
2013-04-24 15:57:00,82.6,38.7,30.21,East,93,4.0,6.3,21,0.00,,---,0.00,VWS V14.01,2013-04-24 19:57:00,
2013-04-24 16:02:00,81.9,38.1,30.21,ENE,76,2.7,4.0,21,0.00,,---,0.00,VWS V14.01,2013-04-24 20:02:00,
2013-04-24 16:07:00,81.5,37.8,30.21,ESE,123,5.8,5.8,21,0.00,,---,0.00,VWS V14.01,2013-04-24 20:07:00,
2013-04-24 16:12:00,81.1,36.3,30.21,ENE,75,2.7,3.1,20,0.00,,---,0.00,VWS V14.01,2013-04-24 20:12:00,
2013-04-24 16:17:00,81.3,38.9,30.21,ENE,64,5.8,5.8,22,0.00,,---,0.00,VWS V14.01,2013-04-24 20:17:00,
2013-04-24 16:22:00,81.3,37.7,30.21,ENE,69,3.6,3.6,21,0.00,,---,0.00,VWS V14.01,2013-04-24 20:22:00,
2013-04-24 16:28:00,81.0,38.6,30.21,East,97,5.8,5.8,22,0.00,,---,0.00,VWS V14.01,2013-04-24 20:28:00,
2013-04-24 16:33:00,81.0,37.4,30.21,ENE,63,3.6,3.6,21,0.00,,---,0.00,VWS V14.01,2013-04-24 20:33:00,
2013-04-24 16:38:00,81.3,38.9,30.21,ENE,73,5.8,5.8,22,0.00,,---,0.00,VWS V14.01,2013-04-24 20:38:00,
2013-04-24 16:43:00,81.3,37.7,30.21,East,85,5.8,6.3,21,0.00,,---,0.00,VWS V14.01,2013-04-24 20:43:00,
2013-04-24 16:48:00,80.8,37.2,30.21,ESE,113,3.6,5.4,21,0.00,,---,0.00,VWS V14.01,2013-04-24 20:48:00,
2013-04-24 16:53:00,80.8,37.2,30.18,SE,141,5.8,5.8,21,0.00,,---,0.00,VWS V14.01,2013-04-24 20:53:00,
2013-04-24 16:58:00,81.1,37.5,30.18,North,353,4.0,4.9,21,0.00,,---,0.00,VWS V14.01,2013-04-24 20:58:00,
2013-04-24 17:03:00,80.8,37.2,30.18,ENE,63,5.8,6.7,21,0.00,,---,0.00,VWS V14.01,2013-04-24 21:03:00,
2013-04-24 17:08:00,80.2,38.0,30.21,East,84,5.4,5.4,22,0.00,,---,0.00,VWS V14.01,2013-04-24 21:08:00,
2013-04-24 17:13:00,80.4,38.1,30.21,NE,51,3.6,3.6,22,0.00,,---,0.00,VWS V14.01,2013-04-24 21:13:00,
2013-04-24 17:18:00,80.8,37.2,30.21,SSE,162,5.8,7.6,21,0.00,,---,0.00,VWS V14.01,2013-04-24 21:18:00,
2013-04-24 17:23:00,80.6,37.1,30.21,ESE,121,5.8,5.8,21,0.00,,---,0.00,VWS V14.01,2013-04-24 21:23:00,
2013-04-24 17:28:00,80.6,37.1,30.21,ESE,122,2.7,2.7,21,0.00,,---,0.00,VWS V14.01,2013-04-24 21:28:00,
2013-04-24 17:33:00,80.6,37.1,30.21,North,357,4.0,4.0,21,0.00,,---,0.00,VWS V14.01,2013-04-24 21:33:00,
2013-04-24 17:38:00,80.6,37.1,30.21,ENE,78,2.7,2.7,21,0.00,,---,0.00,VWS V14.01,2013-04-24 21:38:00,
2013-04-24 17:43:00,80.4,37.0,30.21,ENE,70,3.6,3.6,21,0.00,,---,0.00,VWS V14.01,2013-04-24 21:43:00,
2013-04-24 17:48:00,80.2,38.0,30.21,ESE,116,6.3,6.3,22,0.00,,---,0.00,VWS V14.01,2013-04-24 21:48:00,
2013-04-24 17:53:00,80.2,38.0,30.21,ENE,74,4.0,4.0,22,0.00,,---,0.00,VWS V14.01,2013-04-24 21:53:00,
2013-04-24 17:58:00,80.1,39.0,30.21,ESE,113,3.6,4.0,23,0.00,,---,0.00,VWS V14.01,2013-04-24 21:58:00,
2013-04-24 18:03:00,79.5,37.4,30.21,SE,126,6.3,6.3,22,0.00,,---,0.00,VWS V14.01,2013-04-24 22:03:00,
2013-04-24 18:08:00,79.3,37.2,30.21,SE,142,4.9,4.9,22,0.00,,---,0.00,VWS V14.01,2013-04-24 22:08:00,
2013-04-24 18:13:00,79.3,38.4,30.21,ESE,115,2.7,4.9,23,0.00,,---,0.00,VWS V14.01,2013-04-24 22:13:00,
2013-04-24 18:18:00,79.3,38.4,30.21,East,91,4.9,7.6,23,0.00,,---,0.00,VWS V14.01,2013-04-24 22:18:00,
2013-04-24 18:24:00,79.2,38.2,30.21,SE,127,4.0,6.3,23,0.00,,---,0.00,VWS V14.01,2013-04-24 22:24:00,
2013-04-24 18:29:00,79.2,38.2,30.21,ENE,67,4.9,4.9,23,0.00,,---,0.00,VWS V14.01,2013-04-24 22:29:00,
2013-04-24 18:34:00,78.8,37.9,30.21,East,90,5.4,5.8,23,0.00,,---,0.00,VWS V14.01,2013-04-24 22:34:00,
2013-04-24 18:39:00,78.8,37.9,30.21,SE,140,3.6,4.9,23,0.00,,---,0.00,VWS V14.01,2013-04-24 22:39:00,
2013-04-24 18:44:00,78.6,38.8,30.21,ESE,112,6.3,6.3,24,0.00,,---,0.00,VWS V14.01,2013-04-24 22:44:00,
2013-04-24 18:49:00,78.3,39.6,30.21,East,83,3.6,4.0,25,0.00,,---,0.00,VWS V14.01,2013-04-24 22:49:00,
2013-04-24 18:54:00,78.1,38.4,30.21,SE,131,5.4,6.7,24,0.00,,---,0.00,VWS V14.01,2013-04-24 22:54:00,
2013-04-24 18:59:00,78.1,39.4,30.21,SE,139,6.7,6.7,25,0.00,,---,0.00,VWS V14.01,2013-04-24 22:59:00,
2013-04-24 19:04:00,77.9,38.2,30.21,ENE,76,4.0,4.0,24,0.00,,---,0.00,VWS V14.01,2013-04-24 23:04:00,
2013-04-24 19:09:00,77.7,39.1,30.21,East,82,6.3,7.6,25,0.00,,---,0.00,VWS V14.01,2013-04-24 23:09:00,
2013-04-24 19:14:00,77.4,38.8,30.21,NE,41,3.6,3.6,25,0.00,,---,0.00,VWS V14.01,2013-04-24 23:14:00,
2013-04-24 19:19:00,77.4,39.8,30.21,ENE,68,4.9,4.9,26,0.00,,---,0.00,VWS V14.01,2013-04-24 23:19:00,
2013-04-24 19:24:00,77.2,39.7,30.21,East,99,4.0,4.0,26,0.00,,---,0.00,VWS V14.01,2013-04-24 23:24:00,
2013-04-24 19:29:00,76.8,39.4,30.21,ENE,71,3.6,3.6,26,0.00,,---,0.00,VWS V14.01,2013-04-24 23:29:00,
2013-04-24 19:34:00,76.6,40.2,30.21,ENE,60,2.7,2.7,27,0.00,,---,0.00,VWS V14.01,2013-04-24 23:34:00,
2013-04-24 19:39:00,76.5,41.0,30.21,ENE,78,3.1,3.1,28,0.00,,---,0.00,VWS V14.01,2013-04-24 23:39:00,
2013-04-24 19:44:00,76.1,41.6,30.24,ENE,71,4.0,4.0,29,0.00,,---,0.00,VWS V14.01,2013-04-24 23:44:00,
2013-04-24 19:49:00,76.1,40.7,30.24,East,82,3.1,5.8,28,0.00,,---,0.00,VWS V14.01,2013-04-24 23:49:00,
2013-04-24 19:55:00,75.7,41.3,30.24,ESE,105,4.9,4.9,29,0.00,,---,0.00,VWS V14.01,2013-04-24 23:55:00,
2013-04-24 20:00:00,75.6,41.1,30.24,East,87,2.7,3.1,29,0.00,,---,0.00,VWS V14.01,2013-04-25 00:00:00,
2013-04-24 20:05:00,75.4,41.0,30.24,ENE,73,4.0,4.0,29,0.00,,---,0.00,VWS V14.01,2013-04-25 00:05:00,
2013-04-24 20:10:00,75.2,41.7,30.24,ENE,72,5.8,5.8,30,0.00,,---,0.00,VWS V14.01,2013-04-25 00:10:00,
2013-04-24 20:15:00,75.4,41.8,30.21,ENE,61,4.0,4.0,30,0.00,,---,0.00,VWS V14.01,2013-04-25 00:15:00,
2013-04-24 20:20:00,75.2,42.5,30.21,ENE,58,3.6,3.6,31,0.00,,---,0.00,VWS V14.01,2013-04-25 00:20:00,
2013-04-24 20:25:00,75.0,42.4,30.21,ENE,78,0.0,0.0,31,0.00,,---,0.00,VWS V14.01,2013-04-25 00:25:00,
2013-04-24 20:30:00,74.7,42.0,30.21,ENE,58,2.7,2.7,31,0.00,,---,0.00,VWS V14.01,2013-04-25 00:30:00,
2013-04-24 20:35:00,74.5,42.7,30.24,East,93,3.1,3.6,32,0.00,,---,0.00,VWS V14.01,2013-04-25 00:35:00,
2013-04-24 20:40:00,74.5,41.9,30.24,ENE,74,0.0,2.2,31,0.00,,---,0.00,VWS V14.01,2013-04-25 00:40:00,
2013-04-24 20:45:00,74.5,42.7,30.24,NE,56,3.6,3.6,32,0.00,,---,0.00,VWS V14.01,2013-04-25 00:45:00,
2013-04-24 20:50:00,74.5,42.7,30.24,East,98,2.7,2.7,32,0.00,,---,0.00,VWS V14.01,2013-04-25 00:50:00,
2013-04-24 20:55:00,74.5,42.7,30.24,ENE,78,0.0,2.7,32,0.00,,---,0.00,VWS V14.01,2013-04-25 00:55:00,
2013-04-24 21:00:00,74.3,43.4,30.24,NE,56,4.9,4.9,33,0.00,,---,0.00,VWS V14.01,2013-04-25 01:00:00,
2013-04-24 21:05:00,74.1,43.2,30.24,NE,52,2.7,2.7,33,0.00,,---,0.00,VWS V14.01,2013-04-25 01:05:00,
2013-04-24 21:10:00,74.1,43.2,30.24,NE,56,3.1,3.1,33,0.00,,---,0.00,VWS V14.01,2013-04-25 01:10:00,
2013-04-24 21:15:00,74.1,42.4,30.24,ENE,68,2.2,4.0,32,0.00,,---,0.00,VWS V14.01,2013-04-25 01:15:00,
2013-04-24 21:20:00,74.1,42.4,30.24,NE,42,2.7,3.1,32,0.00,,---,0.00,VWS V14.01,2013-04-25 01:20:00,
2013-04-24 21:25:00,74.1,43.2,30.24,ENE,64,4.0,4.0,33,0.00,,---,0.00,VWS V14.01,2013-04-25 01:25:00,
2013-04-24 21:30:00,74.1,43.2,30.24,ENE,69,0.0,0.0,33,0.00,,---,0.00,VWS V14.01,2013-04-25 01:30:00,
2013-04-24 21:35:00,73.9,43.0,30.24,East,91,3.6,3.6,33,0.00,,---,0.00,VWS V14.01,2013-04-25 01:35:00,
2013-04-24 21:40:00,73.9,43.8,30.27,ENE,75,2.2,2.7,34,0.00,,---,0.00,VWS V14.01,2013-04-25 01:40:00,
2013-04-24 21:45:00,73.8,43.7,30.27,East,79,2.7,2.7,34,0.00,,---,0.00,VWS V14.01,2013-04-25 01:45:00,
2013-04-24 21:51:00,73.8,43.7,30.27,NE,44,3.1,3.1,34,0.00,,---,0.00,VWS V14.01,2013-04-25 01:51:00,
2013-04-24 21:56:00,73.8,43.7,30.27,East,85,2.2,3.1,34,0.00,,---,0.00,VWS V14.01,2013-04-25 01:56:00,
2013-04-24 22:01:00,73.9,43.8,30.27,ESE,107,0.0,0.0,34,0.00,,---,0.00,VWS V14.01,2013-04-25 02:01:00,
2013-04-24 22:06:00,73.9,43.0,30.27,ENE,72,2.7,4.0,33,0.00,,---,0.00,VWS V14.01,2013-04-25 02:06:00,
2013-04-24 22:11:00,73.9,43.0,30.27,East,92,0.0,0.0,33,0.00,,---,0.00,VWS V14.01,2013-04-25 02:11:00,
2013-04-24 22:16:00,73.8,42.9,30.27,East,86,4.0,4.0,33,0.00,,---,0.00,VWS V14.01,2013-04-25 02:16:00,
2013-04-24 22:21:00,73.8,42.9,30.27,East,91,0.0,2.7,33,0.00,,---,0.00,VWS V14.01,2013-04-25 02:21:00,
2013-04-24 22:26:00,73.6,43.5,30.27,East,82,2.7,2.7,34,0.00,,---,0.00,VWS V14.01,2013-04-25 02:26:00,
2013-04-24 22:31:00,73.6,43.5,30.27,East,93,5.8,5.8,34,0.00,,---,0.00,VWS V14.01,2013-04-25 02:31:00,
2013-04-24 22:36:00,73.6,43.5,30.27,ENE,73,3.6,3.6,34,0.00,,---,0.00,VWS V14.01,2013-04-25 02:36:00,
2013-04-24 22:41:00,73.4,43.3,30.27,ENE,59,4.9,4.9,34,0.00,,---,0.00,VWS V14.01,2013-04-25 02:41:00,
2013-04-24 22:46:00,73.6,42.7,30.27,East,98,5.8,5.8,33,0.00,,---,0.00,VWS V14.01,2013-04-25 02:46:00,
2013-04-24 22:51:00,73.8,42.9,30.27,East,92,3.6,3.6,33,0.00,,---,0.00,VWS V14.01,2013-04-25 02:51:00,
2013-04-24 22:56:00,73.8,42.9,30.27,ENE,58,2.7,2.7,33,0.00,,---,0.00,VWS V14.01,2013-04-25 02:56:00,
2013-04-24 23:01:00,73.6,42.7,30.27,ENE,74,4.9,4.9,33,0.00,,---,0.00,VWS V14.01,2013-04-25 03:01:00,
2013-04-24 23:06:00,73.4,42.6,30.27,SE,126,2.7,2.7,33,0.00,,---,0.00,VWS V14.01,2013-04-25 03:06:00,
2013-04-24 23:11:00,73.2,42.4,30.27,East,91,0.0,2.7,33,0.00,,---,0.00,VWS V14.01,2013-04-25 03:11:00,
2013-04-24 23:16:00,73.0,42.3,30.27,East,101,2.2,2.2,33,0.00,,---,0.00,VWS V14.01,2013-04-25 03:16:00,
2013-04-24 23:21:00,72.9,42.1,30.27,ENE,75,0.0,0.0,33,0.00,,---,0.00,VWS V14.01,2013-04-25 03:21:00,
2013-04-24 23:26:00,72.9,42.1,30.27,NE,46,4.0,4.0,33,0.00,,---,0.00,VWS V14.01,2013-04-25 03:26:00,
2013-04-24 23:31:00,72.7,42.0,30.27,ENE,71,0.0,3.1,33,0.00,,---,0.00,VWS V14.01,2013-04-25 03:31:00,
2013-04-24 23:36:00,72.7,42.0,30.27,SE,135,0.0,0.0,33,0.00,,---,0.00,VWS V14.01,2013-04-25 03:36:00,
2013-04-24 23:42:00,72.5,41.8,30.27,East,80,3.6,3.6,33,0.00,,---,0.00,VWS V14.01,2013-04-25 03:42:00,
2013-04-24 23:47:00,72.5,41.8,30.27,East,89,0.0,3.1,33,0.00,,---,0.00,VWS V14.01,2013-04-25 03:47:00,
2013-04-24 23:52:00,72.5,41.8,30.27,East,80,3.1,3.1,33,0.00,,---,0.00,VWS V14.01,2013-04-25 03:52:00,
2013-04-24 23:57:00,72.5,41.8,30.27,ESE,117,2.7,3.1,33,0.00,,---,0.00,VWS V14.01,2013-04-25 03:57:00,